sensor_id;sensor_type;location;lat;lon;timestamp;P1;durP1;ratioP1;P2;durP2;ratioP2
69985;SDS011;57328;52.054;5.294;2023-02-28T00:00:08;6.07;;;2.13;;
69985;SDS011;57328;52.054;5.294;2023-02-28T00:02:37;7.43;;;2.08;;
69985;SDS011;57328;52.054;5.294;2023-02-28T00:05:04;7.68;;;2.20;;
69985;SDS011;57328;52.054;5.294;2023-02-28T00:07:32;9.00;;;2.42;;
69985;SDS011;57328;52.054;5.294;2023-02-28T00:09:59;5.15;;;2.15;;
69985;SDS011;57328;52.054;5.294;2023-02-28T00:12:26;8.82;;;2.55;;
69985;SDS011;57328;52.054;5.294;2023-02-28T00:14:54;7.13;;;3.10;;
69985;SDS011;57328;52.054;5.294;2023-02-28T00:17:21;12.30;;;3.47;;
69985;SDS011;57328;52.054;5.294;2023-02-28T00:19:48;8.77;;;3.05;;
69985;SDS011;57328;52.054;5.294;2023-02-28T00:22:16;7.25;;;2.45;;
69985;SDS011;57328;52.054;5.294;2023-02-28T00:24:43;9.32;;;2.83;;
69985;SDS011;57328;52.054;5.294;2023-02-28T00:27:10;8.13;;;2.28;;
69985;SDS011;57328;52.054;5.294;2023-02-28T00:29:38;6.95;;;2.38;;
69985;SDS011;57328;52.054;5.294;2023-02-28T00:32:05;6.22;;;2.28;;
69985;SDS011;57328;52.054;5.294;2023-02-28T00:34:33;8.20;;;2.75;;
69985;SDS011;57328;52.054;5.294;2023-02-28T00:37:04;7.50;;;2.50;;
69985;SDS011;57328;52.054;5.294;2023-02-28T00:39:33;5.90;;;2.50;;
69985;SDS011;57328;52.054;5.294;2023-02-28T00:42:01;5.65;;;2.38;;
69985;SDS011;57328;52.054;5.294;2023-02-28T00:44:29;7.63;;;2.05;;
69985;SDS011;57328;52.054;5.294;2023-02-28T00:46:56;5.60;;;2.58;;
69985;SDS011;57328;52.054;5.294;2023-02-28T00:49:24;10.73;;;2.92;;
69985;SDS011;57328;52.054;5.294;2023-02-28T00:51:51;6.50;;;2.58;;
69985;SDS011;57328;52.054;5.294;2023-02-28T00:54:19;6.07;;;2.20;;
69985;SDS011;57328;52.054;5.294;2023-02-28T00:56:46;8.15;;;2.35;;
69985;SDS011;57328;52.054;5.294;2023-02-28T00:59:14;8.02;;;2.55;;
69985;SDS011;57328;52.054;5.294;2023-02-28T01:01:42;7.38;;;2.50;;
69985;SDS011;57328;52.054;5.294;2023-02-28T01:04:09;5.38;;;2.20;;
69985;SDS011;57328;52.054;5.294;2023-02-28T01:06:37;6.60;;;2.60;;
69985;SDS011;57328;52.054;5.294;2023-02-28T01:09:05;7.00;;;2.38;;
69985;SDS011;57328;52.054;5.294;2023-02-28T01:11:33;6.55;;;2.03;;
69985;SDS011;57328;52.054;5.294;2023-02-28T01:14:00;7.28;;;2.35;;
69985;SDS011;57328;52.054;5.294;2023-02-28T01:16:27;4.82;;;2.10;;
69985;SDS011;57328;52.054;5.294;2023-02-28T01:18:55;7.47;;;2.10;;
69985;SDS011;57328;52.054;5.294;2023-02-28T01:21:22;5.38;;;2.05;;
69985;SDS011;57328;52.054;5.294;2023-02-28T01:23:50;7.45;;;2.00;;
69985;SDS011;57328;52.054;5.294;2023-02-28T01:26:18;7.63;;;2.33;;
69985;SDS011;57328;52.054;5.294;2023-02-28T01:28:46;4.68;;;2.08;;
69985;SDS011;57328;52.054;5.294;2023-02-28T01:31:13;6.57;;;2.08;;
69985;SDS011;57328;52.054;5.294;2023-02-28T01:33:41;6.10;;;2.50;;
69985;SDS011;57328;52.054;5.294;2023-02-28T01:36:12;5.97;;;1.98;;
69985;SDS011;57328;52.054;5.294;2023-02-28T01:38:40;7.30;;;2.22;;
69985;SDS011;57328;52.054;5.294;2023-02-28T01:41:07;7.32;;;2.25;;
69985;SDS011;57328;52.054;5.294;2023-02-28T01:46:12;5.75;;;2.20;;
69985;SDS011;57328;52.054;5.294;2023-02-28T01:48:51;5.63;;;1.85;;
69985;SDS011;57328;52.054;5.294;2023-02-28T01:51:20;9.10;;;2.53;;
69985;SDS011;57328;52.054;5.294;2023-02-28T01:53:49;4.70;;;1.95;;
69985;SDS011;57328;52.054;5.294;2023-02-28T01:56:19;6.78;;;2.30;;
69985;SDS011;57328;52.054;5.294;2023-02-28T01:58:48;6.93;;;2.30;;
69985;SDS011;57328;52.054;5.294;2023-02-28T02:01:16;9.30;;;2.40;;
69985;SDS011;57328;52.054;5.294;2023-02-28T02:03:54;7.43;;;2.53;;
69985;SDS011;57328;52.054;5.294;2023-02-28T02:06:23;6.85;;;2.05;;
69985;SDS011;57328;52.054;5.294;2023-02-28T02:08:51;6.28;;;2.38;;
69985;SDS011;57328;52.054;5.294;2023-02-28T02:11:19;10.02;;;2.72;;
69985;SDS011;57328;52.054;5.294;2023-02-28T02:13:57;7.13;;;2.53;;
69985;SDS011;57328;52.054;5.294;2023-02-28T02:18:53;5.80;;;2.17;;
69985;SDS011;57328;52.054;5.294;2023-02-28T02:26:58;6.20;;;2.50;;
69985;SDS011;57328;52.054;5.294;2023-02-28T02:32:27;6.20;;;2.58;;
69985;SDS011;57328;52.054;5.294;2023-02-28T02:35:00;5.80;;;2.20;;
69985;SDS011;57328;52.054;5.294;2023-02-28T02:37:32;6.78;;;2.28;;
69985;SDS011;57328;52.054;5.294;2023-02-28T02:40:05;8.38;;;2.40;;
69985;SDS011;57328;52.054;5.294;2023-02-28T02:42:53;7.78;;;2.47;;
69985;SDS011;57328;52.054;5.294;2023-02-28T02:45:29;7.80;;;2.55;;
69985;SDS011;57328;52.054;5.294;2023-02-28T02:48:02;5.30;;;2.22;;
69985;SDS011;57328;52.054;5.294;2023-02-28T02:50:36;6.13;;;2.22;;
69985;SDS011;57328;52.054;5.294;2023-02-28T02:53:04;7.10;;;2.47;;
69985;SDS011;57328;52.054;5.294;2023-02-28T02:55:33;9.60;;;2.55;;
69985;SDS011;57328;52.054;5.294;2023-02-28T02:58:02;8.20;;;2.53;;
69985;SDS011;57328;52.054;5.294;2023-02-28T03:00:33;6.07;;;2.30;;
69985;SDS011;57328;52.054;5.294;2023-02-28T03:03:04;9.35;;;2.92;;
69985;SDS011;57328;52.054;5.294;2023-02-28T03:05:34;7.80;;;2.47;;
69985;SDS011;57328;52.054;5.294;2023-02-28T03:08:03;7.70;;;2.40;;
69985;SDS011;57328;52.054;5.294;2023-02-28T03:13:06;6.50;;;2.17;;
69985;SDS011;57328;52.054;5.294;2023-02-28T03:23:35;6.30;;;2.35;;
69985;SDS011;57328;52.054;5.294;2023-02-28T03:26:07;5.97;;;2.53;;
69985;SDS011;57328;52.054;5.294;2023-02-28T03:29:28;6.22;;;2.20;;
69985;SDS011;57328;52.054;5.294;2023-02-28T03:31:28;5.72;;;2.58;;
69985;SDS011;57328;52.054;5.294;2023-02-28T03:36:32;6.38;;;2.40;;
69985;SDS011;57328;52.054;5.294;2023-02-28T03:41:53;6.10;;;2.30;;
69985;SDS011;57328;52.054;5.294;2023-02-28T03:44:23;9.80;;;2.80;;
69985;SDS011;57328;52.054;5.294;2023-02-28T03:47:03;9.45;;;2.80;;
69985;SDS011;57328;52.054;5.294;2023-02-28T03:49:32;6.22;;;2.47;;
69985;SDS011;57328;52.054;5.294;2023-02-28T03:52:01;9.68;;;2.90;;
69985;SDS011;57328;52.054;5.294;2023-02-28T03:54:32;6.43;;;2.50;;
69985;SDS011;57328;52.054;5.294;2023-02-28T03:59:49;6.72;;;2.53;;
69985;SDS011;57328;52.054;5.294;2023-02-28T04:02:20;8.25;;;2.80;;
69985;SDS011;57328;52.054;5.294;2023-02-28T04:04:47;6.82;;;2.50;;
69985;SDS011;57328;52.054;5.294;2023-02-28T04:07:15;7.70;;;2.67;;
69985;SDS011;57328;52.054;5.294;2023-02-28T04:09:43;8.90;;;3.40;;
69985;SDS011;57328;52.054;5.294;2023-02-28T04:12:10;5.03;;;2.30;;
69985;SDS011;57328;52.054;5.294;2023-02-28T04:14:37;8.35;;;2.92;;
69985;SDS011;57328;52.054;5.294;2023-02-28T04:17:04;7.85;;;2.80;;
69985;SDS011;57328;52.054;5.294;2023-02-28T04:19:32;10.48;;;3.17;;
69985;SDS011;57328;52.054;5.294;2023-02-28T04:21:59;11.73;;;2.90;;
69985;SDS011;57328;52.054;5.294;2023-02-28T04:24:27;8.77;;;3.03;;
69985;SDS011;57328;52.054;5.294;2023-02-28T04:26:55;13.30;;;3.75;;
69985;SDS011;57328;52.054;5.294;2023-02-28T04:29:27;8.40;;;3.58;;
69985;SDS011;57328;52.054;5.294;2023-02-28T04:31:54;8.07;;;2.83;;
69985;SDS011;57328;52.054;5.294;2023-02-28T04:34:26;7.55;;;2.42;;
69985;SDS011;57328;52.054;5.294;2023-02-28T04:36:53;5.72;;;2.33;;
69985;SDS011;57328;52.054;5.294;2023-02-28T04:39:37;5.93;;;1.80;;
69985;SDS011;57328;52.054;5.294;2023-02-28T04:42:05;5.05;;;2.08;;
69985;SDS011;57328;52.054;5.294;2023-02-28T04:44:32;5.22;;;2.28;;
69985;SDS011;57328;52.054;5.294;2023-02-28T04:46:59;7.78;;;2.50;;
69985;SDS011;57328;52.054;5.294;2023-02-28T04:49:26;6.10;;;2.30;;
69985;SDS011;57328;52.054;5.294;2023-02-28T04:51:53;5.88;;;2.50;;
69985;SDS011;57328;52.054;5.294;2023-02-28T04:54:21;6.28;;;2.67;;
69985;SDS011;57328;52.054;5.294;2023-02-28T04:56:48;5.03;;;2.13;;
69985;SDS011;57328;52.054;5.294;2023-02-28T04:59:16;7.78;;;2.65;;
69985;SDS011;57328;52.054;5.294;2023-02-28T05:01:47;5.95;;;2.40;;
69985;SDS011;57328;52.054;5.294;2023-02-28T05:04:15;6.45;;;2.28;;
69985;SDS011;57328;52.054;5.294;2023-02-28T05:06:42;4.82;;;2.13;;
69985;SDS011;57328;52.054;5.294;2023-02-28T05:09:09;5.90;;;1.90;;
69985;SDS011;57328;52.054;5.294;2023-02-28T05:11:40;4.88;;;2.03;;
69985;SDS011;57328;52.054;5.294;2023-02-28T05:14:11;5.72;;;2.40;;
69985;SDS011;57328;52.054;5.294;2023-02-28T05:16:39;4.97;;;1.83;;
69985;SDS011;57328;52.054;5.294;2023-02-28T05:19:06;5.22;;;2.58;;
69985;SDS011;57328;52.054;5.294;2023-02-28T05:21:35;6.18;;;2.38;;
69985;SDS011;57328;52.054;5.294;2023-02-28T05:26:30;9.20;;;2.38;;
69985;SDS011;57328;52.054;5.294;2023-02-28T05:28:57;5.38;;;2.50;;
69985;SDS011;57328;52.054;5.294;2023-02-28T05:31:25;6.03;;;2.38;;
69985;SDS011;57328;52.054;5.294;2023-02-28T05:33:52;6.80;;;2.70;;
69985;SDS011;57328;52.054;5.294;2023-02-28T05:36:20;6.05;;;1.88;;
69985;SDS011;57328;52.054;5.294;2023-02-28T05:38:48;6.18;;;2.65;;
69985;SDS011;57328;52.054;5.294;2023-02-28T05:41:17;7.68;;;2.80;;
69985;SDS011;57328;52.054;5.294;2023-02-28T05:43:46;7.43;;;3.10;;
69985;SDS011;57328;52.054;5.294;2023-02-28T05:46:13;6.07;;;2.45;;
69985;SDS011;57328;52.054;5.294;2023-02-28T05:48:41;7.15;;;2.88;;
69985;SDS011;57328;52.054;5.294;2023-02-28T05:51:09;5.50;;;2.53;;
69985;SDS011;57328;52.054;5.294;2023-02-28T05:53:37;6.55;;;2.80;;
69985;SDS011;57328;52.054;5.294;2023-02-28T05:56:04;6.68;;;2.72;;
69985;SDS011;57328;52.054;5.294;2023-02-28T05:58:31;7.10;;;2.67;;
69985;SDS011;57328;52.054;5.294;2023-02-28T06:01:00;7.93;;;2.80;;
69985;SDS011;57328;52.054;5.294;2023-02-28T06:03:27;9.43;;;3.17;;
69985;SDS011;57328;52.054;5.294;2023-02-28T06:05:56;11.55;;;3.00;;
69985;SDS011;57328;52.054;5.294;2023-02-28T06:08:23;6.50;;;3.10;;
69985;SDS011;57328;52.054;5.294;2023-02-28T06:10:51;6.75;;;2.55;;
69985;SDS011;57328;52.054;5.294;2023-02-28T06:13:19;7.82;;;3.00;;
69985;SDS011;57328;52.054;5.294;2023-02-28T06:15:46;7.13;;;2.28;;
69985;SDS011;57328;52.054;5.294;2023-02-28T06:18:13;6.50;;;2.90;;
69985;SDS011;57328;52.054;5.294;2023-02-28T06:20:40;6.15;;;2.58;;
69985;SDS011;57328;52.054;5.294;2023-02-28T06:23:08;5.97;;;3.03;;
69985;SDS011;57328;52.054;5.294;2023-02-28T06:25:36;7.13;;;2.90;;
69985;SDS011;57328;52.054;5.294;2023-02-28T06:28:04;6.13;;;2.95;;
69985;SDS011;57328;52.054;5.294;2023-02-28T06:30:32;6.57;;;2.80;;
69985;SDS011;57328;52.054;5.294;2023-02-28T06:32:59;7.60;;;2.78;;
69985;SDS011;57328;52.054;5.294;2023-02-28T06:35:27;7.75;;;2.95;;
69985;SDS011;57328;52.054;5.294;2023-02-28T06:37:54;7.70;;;2.83;;
69985;SDS011;57328;52.054;5.294;2023-02-28T06:40:21;5.25;;;2.45;;
69985;SDS011;57328;52.054;5.294;2023-02-28T06:42:49;9.23;;;2.67;;
69985;SDS011;57328;52.054;5.294;2023-02-28T06:45:16;7.85;;;2.97;;
69985;SDS011;57328;52.054;5.294;2023-02-28T06:47:43;7.35;;;2.92;;
69985;SDS011;57328;52.054;5.294;2023-02-28T06:50:11;7.93;;;3.28;;
69985;SDS011;57328;52.054;5.294;2023-02-28T06:52:39;9.32;;;3.55;;
69985;SDS011;57328;52.054;5.294;2023-02-28T06:55:06;8.48;;;3.47;;
69985;SDS011;57328;52.054;5.294;2023-02-28T06:57:34;10.43;;;3.72;;
69985;SDS011;57328;52.054;5.294;2023-02-28T07:00:04;7.20;;;2.80;;
69985;SDS011;57328;52.054;5.294;2023-02-28T07:02:34;4.00;;;1.75;;
69985;SDS011;57328;52.054;5.294;2023-02-28T07:05:02;9.20;;;3.65;;
69985;SDS011;57328;52.054;5.294;2023-02-28T07:07:29;10.90;;;3.60;;
69985;SDS011;57328;52.054;5.294;2023-02-28T07:09:56;8.93;;;3.50;;
69985;SDS011;57328;52.054;5.294;2023-02-28T07:12:23;12.15;;;4.05;;
69985;SDS011;57328;52.054;5.294;2023-02-28T07:14:51;7.80;;;3.40;;
69985;SDS011;57328;52.054;5.294;2023-02-28T07:17:18;7.93;;;3.10;;
69985;SDS011;57328;52.054;5.294;2023-02-28T07:19:45;7.10;;;3.10;;
69985;SDS011;57328;52.054;5.294;2023-02-28T07:22:12;12.68;;;3.40;;
69985;SDS011;57328;52.054;5.294;2023-02-28T07:24:41;7.10;;;3.08;;
69985;SDS011;57328;52.054;5.294;2023-02-28T07:27:08;6.28;;;2.90;;
69985;SDS011;57328;52.054;5.294;2023-02-28T07:29:35;5.55;;;2.78;;
69985;SDS011;57328;52.054;5.294;2023-02-28T07:32:04;7.72;;;2.92;;
69985;SDS011;57328;52.054;5.294;2023-02-28T07:34:31;9.55;;;3.15;;
69985;SDS011;57328;52.054;5.294;2023-02-28T07:36:58;7.05;;;2.80;;
69985;SDS011;57328;52.054;5.294;2023-02-28T07:39:31;7.95;;;2.92;;
69985;SDS011;57328;52.054;5.294;2023-02-28T07:41:58;5.57;;;2.70;;
69985;SDS011;57328;52.054;5.294;2023-02-28T07:44:26;9.98;;;3.03;;
69985;SDS011;57328;52.054;5.294;2023-02-28T07:46:53;6.38;;;3.30;;
69985;SDS011;57328;52.054;5.294;2023-02-28T07:49:20;7.07;;;3.20;;
69985;SDS011;57328;52.054;5.294;2023-02-28T07:51:48;7.25;;;3.03;;
69985;SDS011;57328;52.054;5.294;2023-02-28T07:54:15;7.03;;;3.20;;
69985;SDS011;57328;52.054;5.294;2023-02-28T07:56:42;6.53;;;2.95;;
69985;SDS011;57328;52.054;5.294;2023-02-28T07:59:09;7.35;;;3.72;;
69985;SDS011;57328;52.054;5.294;2023-02-28T08:01:36;7.30;;;3.13;;
69985;SDS011;57328;52.054;5.294;2023-02-28T08:04:04;8.95;;;3.00;;
69985;SDS011;57328;52.054;5.294;2023-02-28T08:06:31;5.53;;;2.90;;
69985;SDS011;57328;52.054;5.294;2023-02-28T08:08:59;8.80;;;2.75;;
69985;SDS011;57328;52.054;5.294;2023-02-28T08:11:26;5.97;;;2.65;;
69985;SDS011;57328;52.054;5.294;2023-02-28T08:13:54;4.82;;;2.20;;
69985;SDS011;57328;52.054;5.294;2023-02-28T08:16:21;6.63;;;2.58;;
69985;SDS011;57328;52.054;5.294;2023-02-28T08:18:49;7.80;;;3.08;;
69985;SDS011;57328;52.054;5.294;2023-02-28T08:21:17;5.10;;;2.10;;
69985;SDS011;57328;52.054;5.294;2023-02-28T08:23:48;4.93;;;2.30;;
69985;SDS011;57328;52.054;5.294;2023-02-28T08:26:18;6.85;;;2.30;;
69985;SDS011;57328;52.054;5.294;2023-02-28T08:28:46;6.40;;;2.40;;
69985;SDS011;57328;52.054;5.294;2023-02-28T08:31:15;7.30;;;2.38;;
69985;SDS011;57328;52.054;5.294;2023-02-28T08:33:42;5.22;;;2.30;;
69985;SDS011;57328;52.054;5.294;2023-02-28T08:36:11;6.57;;;2.42;;
69985;SDS011;57328;52.054;5.294;2023-02-28T08:38:38;5.28;;;2.38;;
69985;SDS011;57328;52.054;5.294;2023-02-28T08:41:07;5.72;;;2.45;;
69985;SDS011;57328;52.054;5.294;2023-02-28T08:43:35;8.60;;;2.53;;
69985;SDS011;57328;52.054;5.294;2023-02-28T08:46:03;9.07;;;2.50;;
69985;SDS011;57328;52.054;5.294;2023-02-28T08:48:31;7.80;;;2.60;;
69985;SDS011;57328;52.054;5.294;2023-02-28T08:51:00;7.43;;;2.58;;
69985;SDS011;57328;52.054;5.294;2023-02-28T08:53:33;5.22;;;2.38;;
69985;SDS011;57328;52.054;5.294;2023-02-28T08:56:04;5.97;;;2.40;;
69985;SDS011;57328;52.054;5.294;2023-02-28T08:58:32;6.20;;;2.40;;
69985;SDS011;57328;52.054;5.294;2023-02-28T09:01:07;4.82;;;2.38;;
69985;SDS011;57328;52.054;5.294;2023-02-28T09:03:34;8.20;;;2.58;;
69985;SDS011;57328;52.054;5.294;2023-02-28T09:06:02;5.65;;;2.25;;
69985;SDS011;57328;52.054;5.294;2023-02-28T09:08:29;8.30;;;3.00;;
69985;SDS011;57328;52.054;5.294;2023-02-28T09:10:57;5.53;;;2.00;;
69985;SDS011;57328;52.054;5.294;2023-02-28T09:13:27;6.00;;;2.10;;
69985;SDS011;57328;52.054;5.294;2023-02-28T09:15:57;6.72;;;2.30;;
69985;SDS011;57328;52.054;5.294;2023-02-28T09:18:25;4.00;;;1.25;;
69985;SDS011;57328;52.054;5.294;2023-02-28T09:20:52;4.68;;;1.98;;
69985;SDS011;57328;52.054;5.294;2023-02-28T09:23:19;4.80;;;2.30;;
69985;SDS011;57328;52.054;5.294;2023-02-28T09:25:48;3.95;;;1.75;;
69985;SDS011;57328;52.054;5.294;2023-02-28T09:28:20;3.17;;;1.55;;
69985;SDS011;57328;52.054;5.294;2023-02-28T09:30:51;4.07;;;1.75;;
69985;SDS011;57328;52.054;5.294;2023-02-28T09:33:20;4.53;;;1.90;;
69985;SDS011;57328;52.054;5.294;2023-02-28T09:35:48;2.22;;;1.13;;
69985;SDS011;57328;52.054;5.294;2023-02-28T09:38:16;3.63;;;1.25;;
69985;SDS011;57328;52.054;5.294;2023-02-28T09:40:55;1.67;;;0.93;;
69985;SDS011;57328;52.054;5.294;2023-02-28T09:43:26;2.38;;;1.30;;
69985;SDS011;57328;52.054;5.294;2023-02-28T09:48:28;3.28;;;1.30;;
69985;SDS011;57328;52.054;5.294;2023-02-28T09:51:04;2.22;;;1.10;;
69985;SDS011;57328;52.054;5.294;2023-02-28T09:53:34;2.90;;;1.30;;
69985;SDS011;57328;52.054;5.294;2023-02-28T09:58:32;2.72;;;1.38;;
69985;SDS011;57328;52.054;5.294;2023-02-28T10:01:06;6.15;;;1.55;;
69985;SDS011;57328;52.054;5.294;2023-02-28T10:03:39;2.42;;;1.30;;
69985;SDS011;57328;52.054;5.294;2023-02-28T10:06:14;4.70;;;1.33;;
69985;SDS011;57328;52.054;5.294;2023-02-28T10:08:50;2.78;;;1.33;;
69985;SDS011;57328;52.054;5.294;2023-02-28T10:11:19;4.63;;;1.65;;
69985;SDS011;57328;52.054;5.294;2023-02-28T10:13:53;2.92;;;1.40;;
69985;SDS011;57328;52.054;5.294;2023-02-28T10:18:56;2.45;;;1.17;;
69985;SDS011;57328;52.054;5.294;2023-02-28T10:21:43;1.98;;;1.25;;
69985;SDS011;57328;52.054;5.294;2023-02-28T10:24:29;1.80;;;0.95;;
69985;SDS011;57328;52.054;5.294;2023-02-28T10:27:01;4.40;;;1.23;;
69985;SDS011;57328;52.054;5.294;2023-02-28T10:29:31;1.98;;;1.02;;
69985;SDS011;57328;52.054;5.294;2023-02-28T10:32:00;1.70;;;1.00;;
69985;SDS011;57328;52.054;5.294;2023-02-28T10:34:28;4.65;;;1.55;;
69985;SDS011;57328;52.054;5.294;2023-02-28T10:36:56;3.13;;;1.25;;
69985;SDS011;57328;52.054;5.294;2023-02-28T10:39:37;0.85;;;0.65;;
69985;SDS011;57328;52.054;5.294;2023-02-28T10:42:05;2.05;;;1.15;;
69985;SDS011;57328;52.054;5.294;2023-02-28T10:44:46;1.45;;;0.85;;
69985;SDS011;57328;52.054;5.294;2023-02-28T10:47:16;1.67;;;1.00;;
69985;SDS011;57328;52.054;5.294;2023-02-28T10:49:48;3.13;;;1.38;;
69985;SDS011;57328;52.054;5.294;2023-02-28T10:52:32;3.95;;;1.30;;
69985;SDS011;57328;52.054;5.294;2023-02-28T10:55:20;2.72;;;1.40;;
69985;SDS011;57328;52.054;5.294;2023-02-28T10:57:48;3.25;;;1.20;;
69985;SDS011;57328;52.054;5.294;2023-02-28T11:00:20;3.00;;;1.30;;
69985;SDS011;57328;52.054;5.294;2023-02-28T11:02:48;2.35;;;1.13;;
69985;SDS011;57328;52.054;5.294;2023-02-28T11:08:05;3.25;;;1.58;;
69985;SDS011;57328;52.054;5.294;2023-02-28T11:10:33;2.03;;;1.10;;
69985;SDS011;57328;52.054;5.294;2023-02-28T11:13:01;3.40;;;1.30;;
69985;SDS011;57328;52.054;5.294;2023-02-28T11:15:33;2.00;;;1.30;;
69985;SDS011;57328;52.054;5.294;2023-02-28T11:20:31;2.75;;;1.35;;
69985;SDS011;57328;52.054;5.294;2023-02-28T11:23:00;3.15;;;1.33;;
69985;SDS011;57328;52.054;5.294;2023-02-28T11:25:32;3.28;;;1.33;;
69985;SDS011;57328;52.054;5.294;2023-02-28T11:28:02;2.85;;;1.40;;
69985;SDS011;57328;52.054;5.294;2023-02-28T11:33:04;2.15;;;1.25;;
69985;SDS011;57328;52.054;5.294;2023-02-28T11:35:46;2.30;;;1.30;;
69985;SDS011;57328;52.054;5.294;2023-02-28T11:38:15;2.20;;;1.40;;
69985;SDS011;57328;52.054;5.294;2023-02-28T11:40:46;3.25;;;1.40;;
69985;SDS011;57328;52.054;5.294;2023-02-28T11:49:11;2.15;;;1.30;;
69985;SDS011;57328;52.054;5.294;2023-02-28T11:51:52;2.85;;;1.38;;
69985;SDS011;57328;52.054;5.294;2023-02-28T11:57:25;2.78;;;1.10;;
69985;SDS011;57328;52.054;5.294;2023-02-28T12:02:56;2.38;;;1.30;;
69985;SDS011;57328;52.054;5.294;2023-02-28T12:10:52;2.38;;;1.20;;
69985;SDS011;57328;52.054;5.294;2023-02-28T12:13:24;2.53;;;1.00;;
69985;SDS011;57328;52.054;5.294;2023-02-28T12:29:19;2.15;;;0.95;;
69985;SDS011;57328;52.054;5.294;2023-02-28T12:31:53;3.95;;;1.63;;
69985;SDS011;57328;52.054;5.294;2023-02-28T12:37:14;2.92;;;1.10;;
69985;SDS011;57328;52.054;5.294;2023-02-28T12:39:46;2.70;;;1.13;;
69985;SDS011;57328;52.054;5.294;2023-02-28T12:42:38;3.58;;;1.13;;
69985;SDS011;57328;52.054;5.294;2023-02-28T12:47:31;3.25;;;1.40;;
69985;SDS011;57328;52.054;5.294;2023-02-28T12:49:59;1.38;;;1.00;;
69985;SDS011;57328;52.054;5.294;2023-02-28T12:52:35;2.25;;;1.20;;
69985;SDS011;57328;52.054;5.294;2023-02-28T12:58:19;4.25;;;1.33;;
69985;SDS011;57328;52.054;5.294;2023-02-28T13:00:38;3.17;;;1.30;;
69985;SDS011;57328;52.054;5.294;2023-02-28T13:09:04;2.83;;;1.13;;
69985;SDS011;57328;52.054;5.294;2023-02-28T13:11:42;3.95;;;1.98;;
69985;SDS011;57328;52.054;5.294;2023-02-28T13:14:29;2.63;;;1.30;;
69985;SDS011;57328;52.054;5.294;2023-02-28T13:19:44;5.70;;;1.92;;
69985;SDS011;57328;52.054;5.294;2023-02-28T13:24:53;3.55;;;1.48;;
69985;SDS011;57328;52.054;5.294;2023-02-28T13:27:22;2.85;;;1.33;;
69985;SDS011;57328;52.054;5.294;2023-02-28T13:29:51;3.35;;;1.60;;
69985;SDS011;57328;52.054;5.294;2023-02-28T13:32:19;3.88;;;1.52;;
69985;SDS011;57328;52.054;5.294;2023-02-28T13:47:29;3.45;;;1.50;;
69985;SDS011;57328;52.054;5.294;2023-02-28T13:53:06;2.97;;;1.27;;
69985;SDS011;57328;52.054;5.294;2023-02-28T13:58:19;10.50;;;1.40;;
69985;SDS011;57328;52.054;5.294;2023-02-28T14:08:50;5.10;;;2.10;;
69985;SDS011;57328;52.054;5.294;2023-02-28T14:11:33;2.58;;;1.60;;
69985;SDS011;57328;52.054;5.294;2023-02-28T14:14:01;3.85;;;1.35;;
69985;SDS011;57328;52.054;5.294;2023-02-28T14:17:02;4.22;;;2.15;;
69985;SDS011;57328;52.054;5.294;2023-02-28T14:19:26;2.35;;;1.30;;
69985;SDS011;57328;52.054;5.294;2023-02-28T14:24:59;5.85;;;1.90;;
69985;SDS011;57328;52.054;5.294;2023-02-28T14:30:04;2.85;;;1.33;;
69985;SDS011;57328;52.054;5.294;2023-02-28T14:35:13;4.88;;;1.60;;
69985;SDS011;57328;52.054;5.294;2023-02-28T14:37:43;6.25;;;1.50;;
69985;SDS011;57328;52.054;5.294;2023-02-28T14:40:17;3.83;;;1.95;;
69985;SDS011;57328;52.054;5.294;2023-02-28T14:42:48;4.68;;;1.77;;
69985;SDS011;57328;52.054;5.294;2023-02-28T14:45:22;2.67;;;1.23;;
69985;SDS011;57328;52.054;5.294;2023-02-28T14:47:50;2.53;;;1.33;;
69985;SDS011;57328;52.054;5.294;2023-02-28T14:50:22;3.53;;;1.50;;
69985;SDS011;57328;52.054;5.294;2023-02-28T14:52:53;3.05;;;1.60;;
69985;SDS011;57328;52.054;5.294;2023-02-28T14:55:28;3.97;;;1.50;;
69985;SDS011;57328;52.054;5.294;2023-02-28T14:57:56;7.00;;;2.25;;
69985;SDS011;57328;52.054;5.294;2023-02-28T15:00:25;4.32;;;1.63;;
69985;SDS011;57328;52.054;5.294;2023-02-28T15:02:53;2.92;;;1.75;;
69985;SDS011;57328;52.054;5.294;2023-02-28T15:05:23;5.63;;;2.72;;
69985;SDS011;57328;52.054;5.294;2023-02-28T15:08:00;3.80;;;1.88;;
69985;SDS011;57328;52.054;5.294;2023-02-28T15:10:28;5.18;;;1.63;;
69985;SDS011;57328;52.054;5.294;2023-02-28T15:12:57;2.35;;;1.35;;
69985;SDS011;57328;52.054;5.294;2023-02-28T15:15:25;3.25;;;1.38;;
69985;SDS011;57328;52.054;5.294;2023-02-28T15:18:54;3.03;;;1.67;;
69985;SDS011;57328;52.054;5.294;2023-02-28T15:21:02;1.80;;;0.93;;
69985;SDS011;57328;52.054;5.294;2023-02-28T15:23:30;3.10;;;1.38;;
69985;SDS011;57328;52.054;5.294;2023-02-28T15:25:57;3.40;;;1.33;;
69985;SDS011;57328;52.054;5.294;2023-02-28T15:28:25;3.92;;;1.83;;
69985;SDS011;57328;52.054;5.294;2023-02-28T15:30:54;4.25;;;1.67;;
69985;SDS011;57328;52.054;5.294;2023-02-28T15:33:32;5.05;;;1.83;;
69985;SDS011;57328;52.054;5.294;2023-02-28T15:36:13;3.33;;;1.55;;
69985;SDS011;57328;52.054;5.294;2023-02-28T15:38:41;2.03;;;1.27;;
69985;SDS011;57328;52.054;5.294;2023-02-28T15:41:20;4.07;;;1.75;;
69985;SDS011;57328;52.054;5.294;2023-02-28T15:43:48;3.33;;;1.58;;
69985;SDS011;57328;52.054;5.294;2023-02-28T15:46:15;2.25;;;1.42;;
69985;SDS011;57328;52.054;5.294;2023-02-28T15:48:44;2.72;;;1.50;;
69985;SDS011;57328;52.054;5.294;2023-02-28T15:53:42;5.85;;;1.95;;
69985;SDS011;57328;52.054;5.294;2023-02-28T15:56:16;3.63;;;1.50;;
69985;SDS011;57328;52.054;5.294;2023-02-28T15:58:46;4.50;;;1.88;;
69985;SDS011;57328;52.054;5.294;2023-02-28T16:01:20;4.15;;;1.85;;
69985;SDS011;57328;52.054;5.294;2023-02-28T16:03:51;3.08;;;1.65;;
69985;SDS011;57328;52.054;5.294;2023-02-28T16:06:29;2.28;;;1.23;;
69985;SDS011;57328;52.054;5.294;2023-02-28T16:08:57;3.03;;;1.63;;
69985;SDS011;57328;52.054;5.294;2023-02-28T16:11:25;2.42;;;1.38;;
69985;SDS011;57328;52.054;5.294;2023-02-28T16:13:52;3.63;;;1.65;;
69985;SDS011;57328;52.054;5.294;2023-02-28T16:16:21;5.47;;;1.80;;
69985;SDS011;57328;52.054;5.294;2023-02-28T16:18:49;4.00;;;1.42;;
69985;SDS011;57328;52.054;5.294;2023-02-28T16:21:16;6.80;;;2.00;;
69985;SDS011;57328;52.054;5.294;2023-02-28T16:23:43;3.65;;;2.00;;
69985;SDS011;57328;52.054;5.294;2023-02-28T16:26:15;4.22;;;1.75;;
69985;SDS011;57328;52.054;5.294;2023-02-28T16:28:45;2.88;;;1.50;;
69985;SDS011;57328;52.054;5.294;2023-02-28T16:31:12;4.05;;;1.50;;
69985;SDS011;57328;52.054;5.294;2023-02-28T16:33:43;3.35;;;1.52;;
69985;SDS011;57328;52.054;5.294;2023-02-28T16:36:14;2.75;;;1.25;;
69985;SDS011;57328;52.054;5.294;2023-02-28T16:38:42;2.75;;;1.40;;
69985;SDS011;57328;52.054;5.294;2023-02-28T16:41:11;2.20;;;1.30;;
69985;SDS011;57328;52.054;5.294;2023-02-28T16:43:43;3.65;;;1.60;;
69985;SDS011;57328;52.054;5.294;2023-02-28T16:46:11;3.25;;;1.60;;
69985;SDS011;57328;52.054;5.294;2023-02-28T16:48:39;3.13;;;1.73;;
69985;SDS011;57328;52.054;5.294;2023-02-28T16:51:13;6.05;;;1.80;;
69985;SDS011;57328;52.054;5.294;2023-02-28T16:53:40;3.35;;;1.75;;
69985;SDS011;57328;52.054;5.294;2023-02-28T16:56:13;5.50;;;1.65;;
69985;SDS011;57328;52.054;5.294;2023-02-28T16:58:42;2.80;;;1.30;;
69985;SDS011;57328;52.054;5.294;2023-02-28T17:01:09;4.05;;;1.98;;
69985;SDS011;57328;52.054;5.294;2023-02-28T17:03:36;3.25;;;1.52;;
69985;SDS011;57328;52.054;5.294;2023-02-28T17:06:04;5.60;;;2.63;;
69985;SDS011;57328;52.054;5.294;2023-02-28T17:08:31;3.78;;;1.77;;
69985;SDS011;57328;52.054;5.294;2023-02-28T17:10:59;6.38;;;3.00;;
69985;SDS011;57328;52.054;5.294;2023-02-28T17:13:27;4.80;;;2.38;;
69985;SDS011;57328;52.054;5.294;2023-02-28T17:15:55;10.25;;;5.68;;
69985;SDS011;57328;52.054;5.294;2023-02-28T17:18:22;6.60;;;2.67;;
69985;SDS011;57328;52.054;5.294;2023-02-28T17:20:49;6.95;;;2.83;;